createdAt,value
2022-11-27T00:01:10.381Z,96.30
2022-11-27T00:03:38.435Z,96.40
2022-11-27T00:06:06.672Z,96.40
2022-11-27T00:08:34.473Z,96.30
2022-11-27T00:11:07.514Z,96.50
2022-11-27T00:13:37.265Z,96.60
2022-11-27T00:16:06.137Z,96.30
2022-11-27T00:18:34.511Z,96.30
2022-11-27T00:21:04.420Z,96.30
2022-11-27T00:23:33.393Z,96.20
2022-11-27T00:26:01.636Z,96.30
2022-11-27T00:28:29.972Z,96.50
2022-11-27T00:31:01.313Z,96.60
2022-11-27T00:33:29.494Z,96.70
2022-11-27T00:35:57.215Z,96.70
2022-11-27T00:38:24.891Z,96.70
2022-11-27T00:40:52.611Z,96.40
2022-11-27T00:43:20.280Z,96.40
2022-11-27T00:45:49.955Z,96.20
2022-11-27T00:48:18.955Z,96.20
2022-11-27T00:50:46.636Z,96.20
2022-11-27T00:53:14.353Z,96.30
2022-11-27T00:55:42.030Z,96.60
2022-11-27T00:58:09.778Z,96.50
2022-11-27T01:00:37.419Z,96.60
2022-11-27T01:03:05.267Z,96.60
2022-11-27T01:05:36.806Z,96.60
2022-11-27T01:08:05.127Z,96.70
2022-11-27T01:10:32.774Z,96.80
2022-11-27T01:13:00.442Z,96.80
2022-11-27T01:15:28.193Z,96.80
2022-11-27T01:17:55.909Z,96.80
2022-11-27T01:20:23.743Z,96.80
2022-11-27T01:22:52.855Z,96.80
2022-11-27T01:25:25.505Z,96.80
2022-11-27T01:27:54.714Z,96.70
2022-11-27T01:30:22.405Z,96.70
2022-11-27T01:32:50.097Z,96.60
2022-11-27T01:35:17.855Z,96.60
2022-11-27T01:37:45.562Z,96.40
2022-11-27T01:40:14.899Z,96.30
2022-11-27T01:42:42.569Z,96.30
2022-11-27T01:45:11.623Z,96.20
2022-11-27T01:47:46.238Z,96.40
2022-11-27T01:50:18.518Z,96.50
2022-11-27T01:52:50.716Z,96.30
2022-11-27T01:55:26.737Z,96.60
2022-11-27T01:57:58.705Z,96.60
2022-11-27T02:00:26.770Z,96.60
2022-11-27T02:02:54.479Z,96.50
2022-11-27T02:05:24.375Z,96.50
2022-11-27T02:07:54.207Z,96.30
2022-11-27T02:10:27.094Z,96.40
2022-11-27T02:12:59.550Z,96.70
2022-11-27T02:15:34.948Z,96.70
2022-11-27T02:18:11.778Z,96.60
2022-11-27T02:20:48.458Z,96.60
2022-11-27T02:23:45.958Z,96.70
2022-11-27T02:26:36.046Z,96.80
2022-11-27T02:29:07.330Z,96.80
2022-11-27T02:31:40.926Z,96.80
2022-11-27T02:34:18.050Z,96.80
2022-11-27T02:36:51.191Z,96.80
2022-11-27T02:39:24.007Z,96.80
2022-11-27T02:41:56.464Z,96.80
2022-11-27T02:44:29.943Z,96.80
2022-11-27T02:46:57.773Z,96.80
2022-11-27T02:49:26.022Z,96.80
2022-11-27T02:51:59.928Z,96.80
2022-11-27T02:54:30.034Z,96.80
2022-11-27T02:57:01.702Z,96.80
2022-11-27T02:59:34.697Z,96.80
2022-11-27T03:02:07.271Z,96.80
2022-11-27T03:04:40.406Z,96.80
2022-11-27T03:07:13.554Z,96.80
2022-11-27T03:09:44.808Z,96.80
2022-11-27T03:12:14.759Z,96.80
2022-11-27T03:14:44.928Z,96.80
2022-11-27T03:17:27.056Z,96.80
2022-11-27T03:19:58.078Z,96.80
2022-11-27T03:22:27.864Z,96.80
2022-11-27T03:24:55.913Z,96.80
2022-11-27T03:27:30.518Z,96.80
2022-11-27T03:30:01.905Z,96.80
2022-11-27T03:32:31.202Z,96.80
2022-11-27T03:34:59.106Z,96.80
2022-11-27T03:37:27.519Z,96.80
2022-11-27T03:39:55.754Z,96.80
2022-11-27T03:42:28.020Z,96.80
2022-11-27T03:45:07.873Z,96.80
2022-11-27T03:47:47.255Z,96.80
2022-11-27T03:50:22.482Z,96.80
2022-11-27T03:52:59.628Z,96.80
2022-11-27T03:55:37.160Z,96.80
2022-11-27T03:58:09.254Z,96.80
2022-11-27T04:00:41.051Z,96.80
2022-11-27T04:03:11.750Z,96.80
2022-11-27T04:05:39.724Z,96.80
2022-11-27T04:08:07.516Z,96.80
2022-11-27T04:10:35.240Z,96.80
2022-11-27T04:13:02.934Z,96.80
2022-11-27T04:15:30.621Z,96.80
2022-11-27T04:17:59.670Z,96.80
2022-11-27T04:20:28.915Z,96.80
2022-11-27T04:22:57.011Z,96.80
2022-11-27T04:25:24.873Z,96.80
2022-11-27T04:27:52.523Z,96.80
2022-11-27T04:30:20.333Z,96.80
2022-11-27T04:32:48.050Z,96.80
2022-11-27T04:35:17.172Z,96.80
2022-11-27T04:37:45.079Z,96.80
2022-11-27T04:40:13.694Z,96.80
2022-11-27T04:42:41.417Z,96.60
2022-11-27T04:45:09.711Z,96.70
2022-11-27T04:47:37.472Z,96.60
2022-11-27T04:50:05.992Z,96.60
2022-11-27T04:52:35.042Z,96.80
2022-11-27T04:55:02.790Z,96.80
2022-11-27T04:57:30.536Z,96.80
2022-11-27T04:59:58.221Z,96.80
2022-11-27T05:02:26.070Z,96.80
2022-11-27T05:04:53.942Z,96.80
2022-11-27T05:07:21.741Z,96.80
2022-11-27T05:09:50.795Z,96.80
2022-11-27T05:12:18.673Z,96.80
2022-11-27T05:14:46.438Z,96.80
2022-11-27T05:17:14.211Z,96.80
2022-11-27T05:19:41.886Z,96.80
2022-11-27T05:22:09.598Z,96.80
2022-11-27T05:24:37.492Z,96.70
2022-11-27T05:27:06.689Z,96.70
2022-11-27T05:29:34.410Z,96.80
2022-11-27T05:32:02.221Z,96.80
2022-11-27T05:34:30.281Z,96.80
2022-11-27T05:36:57.987Z,96.60
2022-11-27T05:39:25.965Z,96.40
2022-11-27T05:41:53.666Z,96.30
2022-11-27T05:44:22.755Z,96.80
2022-11-27T05:46:50.535Z,96.80
2022-11-27T05:49:18.344Z,96.80
2022-11-27T05:51:50.970Z,96.80
2022-11-27T05:54:19.744Z,96.80
2022-11-27T05:56:47.533Z,96.80
2022-11-27T05:59:15.439Z,96.80
2022-11-27T06:01:44.670Z,96.80
2022-11-27T06:04:12.479Z,96.80
2022-11-27T06:06:40.185Z,96.80
2022-11-27T06:09:12.825Z,96.80
2022-11-27T06:11:41.173Z,96.80
2022-11-27T06:14:09.697Z,96.80
2022-11-27T06:16:37.890Z,96.80
2022-11-27T06:19:07.010Z,96.60
2022-11-27T06:21:34.777Z,96.50
2022-11-27T06:24:03.115Z,96.60
2022-11-27T06:26:33.056Z,96.60
2022-11-27T06:29:02.299Z,96.40
2022-11-27T06:31:32.411Z,96.30
2022-11-27T06:34:00.860Z,96.10
2022-11-27T06:36:32.331Z,95.90
2022-11-27T06:39:00.171Z,95.70
2022-11-27T06:41:28.844Z,96.00
2022-11-27T06:43:58.959Z,96.30
2022-11-27T06:46:27.435Z,96.40
2022-11-27T06:48:56.383Z,96.50
2022-11-27T06:51:26.323Z,96.70
2022-11-27T06:53:55.898Z,96.40
2022-11-27T06:56:25.781Z,96.70
2022-11-27T06:58:54.370Z,96.60
2022-11-27T07:01:23.683Z,96.40
2022-11-27T07:03:51.897Z,96.40
2022-11-27T07:06:22.044Z,96.40
2022-11-27T07:08:50.142Z,96.40
2022-11-27T07:11:21.402Z,96.50
2022-11-27T07:13:51.027Z,96.40
2022-11-27T07:16:19.582Z,96.30
2022-11-27T07:18:48.842Z,96.00
2022-11-27T07:21:17.334Z,95.60
2022-11-27T07:23:45.193Z,95.60
2022-11-27T07:26:15.720Z,95.50
2022-11-27T07:28:45.313Z,95.80
2022-11-27T07:31:14.993Z,96.00
2022-11-27T07:33:42.774Z,95.90
2022-11-27T07:36:14.196Z,95.80
2022-11-27T07:38:42.631Z,96.00
2022-11-27T07:41:10.682Z,96.40
2022-11-27T07:43:39.132Z,96.60
2022-11-27T07:46:09.993Z,96.70
2022-11-27T07:48:38.179Z,96.70
2022-11-27T07:51:07.497Z,96.60
2022-11-27T07:53:36.782Z,96.50
2022-11-27T07:56:04.950Z,96.50
2022-11-27T07:58:32.709Z,96.20
2022-11-27T08:01:00.576Z,96.10
2022-11-27T08:03:29.629Z,96.00
2022-11-27T08:05:57.343Z,95.90
2022-11-27T08:08:25.105Z,95.80
2022-11-27T08:10:58.891Z,95.70
2022-11-27T08:13:26.720Z,95.50
2022-11-27T08:15:54.441Z,95.30
2022-11-27T08:18:22.225Z,95.50
2022-11-27T08:20:51.359Z,95.70
2022-11-27T08:23:19.089Z,95.90
2022-11-27T08:25:46.762Z,96.50
2022-11-27T08:28:14.454Z,96.60
2022-11-27T08:30:42.261Z,96.20
2022-11-27T08:33:11.254Z,95.80
2022-11-27T08:35:38.967Z,95.00
2022-11-27T08:38:08.142Z,95.30
2022-11-27T08:40:35.850Z,95.10
2022-11-27T08:43:03.528Z,94.80
2022-11-27T08:45:32.759Z,94.30
2022-11-27T08:48:00.524Z,94.00
2022-11-27T08:50:28.290Z,93.80
2022-11-27T08:52:56.018Z,94.40
2022-11-27T08:55:25.081Z,94.20
2022-11-27T08:57:52.774Z,93.80
2022-11-27T09:00:26.364Z,93.70
2022-11-27T09:02:55.528Z,93.70
2022-11-27T09:05:24.115Z,93.70
2022-11-27T09:07:52.328Z,93.80
2022-11-27T09:10:20.649Z,93.80
2022-11-27T09:12:51.213Z,93.80
2022-11-27T09:15:19.602Z,93.40
2022-11-27T09:17:47.337Z,93.30
2022-11-27T09:20:15.880Z,93.40
2022-11-27T09:22:43.766Z,93.20
2022-11-27T09:25:11.482Z,93.40
2022-11-27T09:27:39.364Z,93.30
2022-11-27T09:30:09.888Z,93.30
2022-11-27T09:32:37.724Z,93.20
2022-11-27T09:35:06.097Z,93.00
2022-11-27T09:37:34.330Z,93.20
2022-11-27T09:40:02.428Z,93.00
2022-11-27T09:42:40.119Z,93.00
2022-11-27T09:45:16.072Z,92.80
2022-11-27T09:47:50.262Z,92.70
2022-11-27T09:50:22.128Z,93.00
2022-11-27T09:52:54.649Z,93.10
2022-11-27T09:55:26.608Z,93.00
2022-11-27T09:57:59.758Z,93.20
2022-11-27T10:00:29.388Z,92.90
2022-11-27T10:02:57.372Z,92.60
2022-11-27T10:05:28.150Z,92.80
2022-11-27T10:08:08.404Z,92.70
2022-11-27T10:10:44.600Z,92.40
2022-11-27T10:13:24.225Z,92.40
2022-11-27T10:16:00.813Z,92.10
2022-11-27T10:18:36.308Z,92.20
2022-11-27T10:21:10.858Z,92.40
2022-11-27T10:23:46.630Z,91.90
2022-11-27T10:26:19.582Z,91.60
2022-11-27T10:28:57.662Z,91.40
2022-11-27T10:31:36.164Z,92.00
2022-11-27T10:34:08.021Z,92.50
2022-11-27T10:36:40.711Z,92.60
2022-11-27T10:39:17.102Z,92.70
2022-11-27T10:41:50.923Z,92.50
2022-11-27T10:44:27.933Z,92.40
2022-11-27T10:47:02.683Z,92.40
2022-11-27T10:49:30.551Z,92.20
2022-11-27T10:51:58.383Z,91.80
2022-11-27T10:54:29.258Z,92.00
2022-11-27T10:57:08.918Z,91.80
2022-11-27T10:59:43.471Z,91.80
2022-11-27T11:08:18.195Z,90.90
2022-11-27T11:10:52.392Z,90.50
2022-11-27T11:13:22.339Z,90.30
2022-11-27T11:15:55.830Z,89.60
2022-11-27T11:18:26.050Z,90.10
2022-11-27T11:20:57.135Z,89.90
2022-11-27T11:23:30.703Z,89.80
2022-11-27T11:26:03.709Z,89.70
2022-11-27T11:28:38.011Z,89.70
2022-11-27T11:31:10.622Z,90.20
2022-11-27T11:33:48.415Z,90.50
2022-11-27T11:36:17.650Z,90.40
2022-11-27T11:38:47.553Z,90.20
2022-11-27T11:41:17.920Z,90.40
2022-11-27T11:43:56.737Z,90.50
2022-11-27T11:46:26.614Z,90.50
2022-11-27T11:48:56.436Z,90.20
2022-11-27T11:51:33.731Z,90.00
2022-11-27T11:54:12.374Z,90.00
2022-11-27T11:56:44.695Z,90.00
2022-11-27T11:59:20.046Z,89.90
2022-11-27T12:02:01.330Z,89.60
2022-11-27T12:04:44.465Z,89.10
2022-11-27T12:07:23.756Z,89.70
2022-11-27T12:10:01.819Z,89.40
2022-11-27T12:12:43.770Z,88.80
2022-11-27T12:15:20.706Z,88.90
2022-11-27T12:17:57.105Z,88.90
2022-11-27T12:20:31.826Z,88.70
2022-11-27T12:23:20.938Z,88.60
2022-11-27T12:25:56.334Z,88.70
2022-11-27T12:28:40.410Z,88.60
2022-11-27T12:31:18.269Z,88.10
2022-11-27T12:33:58.322Z,87.90
2022-11-27T12:36:39.889Z,89.10
2022-11-27T12:39:23.599Z,89.50
2022-11-27T12:42:01.402Z,90.00
2022-11-27T12:44:40.228Z,89.70
2022-11-27T12:47:12.810Z,89.40
2022-11-27T12:49:46.421Z,89.20
2022-11-27T12:52:18.807Z,89.40
2022-11-27T12:54:54.664Z,89.70
2022-11-27T12:57:28.259Z,89.40
2022-11-27T13:00:01.935Z,89.60
2022-11-27T13:02:37.072Z,89.70
2022-11-27T13:05:08.299Z,89.70
2022-11-27T13:07:44.204Z,90.10
2022-11-27T13:10:21.578Z,89.80
2022-11-27T13:12:54.699Z,90.20
2022-11-27T13:15:27.214Z,89.60
2022-11-27T13:18:03.225Z,89.30
2022-11-27T13:20:37.186Z,89.60
2022-11-27T13:23:05.052Z,89.60
2022-11-27T13:25:48.990Z,89.50
2022-11-27T13:28:23.631Z,89.80
2022-11-27T13:30:54.094Z,90.10
2022-11-27T13:33:35.307Z,89.80
2022-11-27T13:36:06.975Z,89.80
2022-11-27T13:38:38.089Z,89.80
2022-11-27T13:41:08.181Z,89.80
2022-11-27T13:43:43.306Z,89.30
2022-11-27T13:46:16.181Z,89.40
2022-11-27T13:48:49.948Z,89.60
2022-11-27T13:51:25.827Z,89.70
2022-11-27T13:53:53.582Z,90.10
2022-11-27T13:56:31.676Z,89.90
2022-11-27T13:58:59.475Z,89.90
2022-11-27T14:01:27.361Z,89.70
2022-11-27T14:03:55.163Z,89.80
2022-11-27T14:06:27.007Z,89.90
2022-11-27T14:08:58.526Z,89.90
2022-11-27T14:11:36.930Z,90.00
2022-11-27T14:14:14.958Z,90.50
2022-11-27T14:16:42.884Z,90.90
2022-11-27T14:19:33.298Z,90.90
2022-11-27T14:22:02.319Z,90.80
2022-11-27T14:24:41.300Z,90.90
2022-11-27T14:27:18.990Z,91.00
2022-11-27T14:29:47.147Z,91.10
2022-11-27T14:32:16.458Z,91.10
2022-11-27T14:34:45.057Z,91.30
2022-11-27T14:37:28.933Z,91.30
2022-11-27T14:39:56.679Z,91.00
2022-11-27T14:42:29.329Z,90.90
2022-11-27T14:45:02.398Z,91.00
2022-11-27T14:47:30.451Z,91.80
2022-11-27T14:49:58.691Z,92.30
2022-11-27T14:52:27.581Z,92.80
2022-11-27T14:54:56.576Z,92.90
2022-11-27T14:57:27.719Z,92.80
2022-11-27T15:00:19.271Z,92.90
2022-11-27T15:02:47.845Z,93.00
2022-11-27T15:05:20.212Z,93.00
2022-11-27T15:07:50.973Z,93.10
2022-11-27T15:10:31.558Z,93.10
2022-11-27T15:13:02.266Z,93.10
2022-11-27T15:15:33.731Z,93.10
2022-11-27T15:18:04.084Z,93.20
2022-11-27T15:20:38.571Z,93.20
2022-11-27T15:23:16.303Z,93.20
2022-11-27T15:25:46.323Z,93.10
2022-11-27T15:28:29.227Z,93.50
2022-11-27T15:30:57.831Z,93.70
2022-11-27T15:33:28.109Z,93.70
2022-11-27T15:36:13.494Z,93.80
2022-11-27T15:38:41.997Z,93.90
2022-11-27T15:41:20.834Z,93.80
2022-11-27T15:43:50.055Z,94.00
2022-11-27T15:46:24.764Z,94.10
2022-11-27T15:48:53.300Z,94.30
2022-11-27T15:51:21.097Z,94.40
2022-11-27T15:53:49.101Z,94.30
2022-11-27T15:56:17.980Z,94.40
2022-11-27T15:58:45.787Z,95.20
2022-11-27T16:01:14.911Z,95.30
2022-11-27T16:03:42.665Z,95.40
2022-11-27T16:06:10.608Z,95.30
2022-11-27T16:08:39.831Z,95.30
2022-11-27T16:11:11.351Z,95.20
2022-11-27T16:13:39.124Z,95.10
2022-11-27T16:16:09.488Z,95.20
2022-11-27T16:18:38.674Z,95.20
2022-11-27T16:21:08.434Z,95.20
2022-11-27T16:23:36.888Z,95.30
2022-11-27T16:26:05.066Z,95.30
2022-11-27T16:28:33.387Z,95.20
2022-11-27T16:31:03.568Z,95.20
2022-11-27T16:33:32.866Z,95.30
2022-11-27T16:36:06.979Z,95.20
2022-11-27T16:38:35.313Z,95.20
2022-11-27T16:41:05.358Z,95.20
2022-11-27T16:43:36.012Z,95.30
2022-11-27T16:46:06.773Z,95.40
2022-11-27T16:48:35.296Z,95.50
2022-11-27T16:51:04.421Z,95.70
2022-11-27T16:53:34.687Z,95.80
2022-11-27T16:56:02.506Z,96.00
2022-11-27T16:58:34.143Z,96.00
2022-11-27T17:01:05.555Z,95.80
2022-11-27T17:03:33.670Z,96.10
2022-11-27T17:06:01.487Z,96.10
2022-11-27T17:08:29.256Z,96.10
2022-11-27T17:10:58.340Z,95.90
2022-11-27T17:13:26.203Z,95.90
2022-11-27T17:15:54.279Z,95.90
2022-11-27T17:18:22.012Z,95.80
2022-11-27T17:20:49.746Z,95.80
2022-11-27T17:23:19.103Z,95.40
2022-11-27T17:25:48.123Z,95.50
2022-11-27T17:28:17.891Z,95.90
2022-11-27T17:30:45.760Z,95.90
2022-11-27T17:33:13.479Z,95.70
2022-11-27T17:35:42.555Z,95.90
2022-11-27T17:38:10.319Z,95.80
2022-11-27T17:40:38.070Z,95.70
2022-11-27T17:43:05.863Z,95.70
2022-11-27T17:45:34.962Z,95.50
2022-11-27T17:48:03.043Z,95.30
2022-11-27T17:50:31.227Z,95.40
2022-11-27T17:52:59.404Z,95.50
2022-11-27T17:55:27.247Z,95.50
2022-11-27T17:57:56.175Z,95.40
2022-11-27T18:00:24.245Z,95.50
2022-11-27T18:02:53.304Z,95.60
2022-11-27T18:05:21.454Z,95.70
2022-11-27T18:07:49.369Z,95.70
2022-11-27T18:10:18.931Z,95.70
2022-11-27T18:12:47.395Z,95.70
2022-11-27T18:15:15.188Z,95.70
2022-11-27T18:17:43.618Z,95.90
2022-11-27T18:20:13.100Z,96.00
2022-11-27T18:22:40.827Z,96.00
2022-11-27T18:25:09.172Z,95.90
2022-11-27T18:27:37.230Z,95.80
2022-11-27T18:30:05.963Z,95.70
2022-11-27T18:32:33.646Z,95.50
2022-11-27T18:35:01.345Z,95.40
2022-11-27T18:37:30.400Z,95.50
2022-11-27T18:39:58.212Z,95.70
2022-11-27T18:42:26.632Z,95.80
2022-11-27T18:44:54.322Z,96.00
2022-11-27T18:47:22.175Z,96.00
2022-11-27T18:49:49.906Z,96.10
2022-11-27T18:52:17.861Z,96.00
2022-11-27T18:54:47.795Z,95.50
2022-11-27T18:57:15.579Z,95.60
2022-11-27T18:59:46.299Z,95.80
2022-11-27T19:02:14.349Z,95.90
2022-11-27T19:04:44.203Z,95.90
2022-11-27T19:07:12.531Z,96.40
2022-11-27T19:09:40.901Z,96.60
2022-11-27T19:12:10.329Z,96.70
2022-11-27T19:14:38.312Z,96.80
2022-11-27T19:17:06.274Z,96.80
2022-11-27T19:19:53.940Z,96.80
2022-11-27T19:22:22.447Z,96.80
2022-11-27T19:24:50.274Z,96.80
2022-11-27T19:27:20.186Z,96.80
2022-11-27T19:29:48.876Z,96.80
2022-11-27T19:32:16.634Z,96.80
2022-11-27T19:34:44.576Z,96.80
2022-11-27T19:37:12.878Z,96.80
2022-11-27T19:39:40.614Z,96.60
2022-11-27T19:42:08.352Z,96.60
2022-11-27T19:44:37.638Z,96.60
2022-11-27T19:47:06.498Z,96.30
2022-11-27T19:49:35.334Z,96.30
2022-11-27T19:52:03.877Z,96.50
2022-11-27T19:54:31.824Z,96.50
2022-11-27T19:56:59.722Z,96.60
2022-11-27T19:59:27.565Z,96.70
2022-11-27T20:01:57.868Z,96.60
2022-11-27T20:04:29.360Z,96.80
2022-11-27T20:06:57.561Z,96.80
2022-11-27T20:09:26.554Z,96.80
2022-11-27T20:11:54.665Z,96.80
2022-11-27T20:14:22.662Z,96.80
2022-11-27T20:16:50.921Z,96.80
2022-11-27T20:19:20.585Z,96.80
2022-11-27T20:21:48.909Z,96.80
2022-11-27T20:24:17.090Z,96.80
2022-11-27T20:26:45.530Z,96.70
2022-11-27T20:29:13.965Z,96.50
2022-11-27T20:31:44.507Z,96.40
2022-11-27T20:34:18.632Z,96.40
2022-11-27T20:36:48.804Z,96.50
2022-11-27T20:39:21.287Z,96.40
2022-11-27T20:41:53.253Z,96.30
2022-11-27T20:44:23.329Z,96.40
2022-11-27T20:46:51.934Z,96.40
2022-11-27T20:49:20.485Z,96.40
2022-11-27T20:51:50.420Z,96.30
2022-11-27T20:54:20.891Z,96.40
2022-11-27T20:56:51.166Z,96.20
2022-11-27T20:59:19.743Z,96.50
2022-11-27T21:01:47.984Z,96.80
2022-11-27T21:04:20.355Z,96.80
2022-11-27T21:06:50.452Z,96.80
2022-11-27T21:09:20.753Z,96.80
2022-11-27T21:11:48.798Z,96.70
2022-11-27T21:14:17.776Z,96.80
2022-11-27T21:16:48.539Z,96.80
2022-11-27T21:19:19.786Z,96.60
2022-11-27T21:21:49.410Z,96.40
2022-11-27T21:24:17.463Z,96.80
2022-11-27T21:26:45.860Z,96.80
2022-11-27T21:29:15.811Z,96.80
2022-11-27T21:31:46.775Z,96.80
2022-11-27T21:34:16.183Z,96.60
2022-11-27T21:36:45.398Z,96.50
2022-11-27T21:39:20.282Z,96.40
2022-11-27T21:41:49.706Z,96.10
2022-11-27T21:44:17.904Z,95.90
2022-11-27T21:46:46.044Z,95.80
2022-11-27T21:49:15.582Z,95.60
2022-11-27T21:51:43.889Z,95.60
2022-11-27T21:54:14.724Z,95.40
2022-11-27T21:56:43.925Z,95.30
2022-11-27T21:59:13.818Z,95.40
2022-11-27T22:01:42.198Z,95.40
2022-11-27T22:04:09.930Z,95.40
2022-11-27T22:06:39.349Z,95.50
2022-11-27T22:09:13.353Z,95.50
2022-11-27T22:11:44.784Z,95.40
2022-11-27T22:14:13.958Z,95.70
2022-11-27T22:16:45.184Z,95.80
2022-11-27T22:19:15.045Z,95.80
2022-11-27T22:21:44.124Z,95.90
2022-11-27T22:24:18.379Z,95.80
2022-11-27T22:26:49.614Z,96.00
2022-11-27T22:29:18.503Z,96.00
2022-11-27T22:31:46.256Z,96.20
2022-11-27T22:34:16.547Z,96.30
2022-11-27T22:36:45.317Z,96.30
2022-11-27T22:39:13.434Z,96.20
2022-11-27T22:41:42.208Z,96.20
2022-11-27T22:44:15.356Z,95.90
2022-11-27T22:46:44.304Z,96.10
2022-11-27T22:49:14.527Z,96.10
2022-11-27T22:51:43.009Z,96.20
2022-11-27T22:54:13.348Z,96.20
2022-11-27T22:56:41.304Z,96.20
2022-11-27T23:02:01.555Z,96.00
2022-11-27T23:04:29.426Z,96.00
2022-11-27T23:06:58.651Z,95.90
2022-11-27T23:09:26.833Z,95.90
2022-11-27T23:11:56.267Z,95.90
2022-11-27T23:14:25.729Z,96.30
2022-11-27T23:16:53.533Z,96.70
2022-11-27T23:19:21.905Z,96.60
2022-11-27T23:21:49.598Z,96.40
2022-11-27T23:24:17.751Z,96.20
2022-11-27T23:26:45.713Z,96.20
2022-11-27T23:29:13.966Z,96.10
2022-11-27T23:31:43.297Z,96.00
2022-11-27T23:34:13.991Z,96.00
2022-11-27T23:36:41.753Z,95.70
2022-11-27T23:39:12.021Z,96.00
2022-11-27T23:41:40.534Z,96.00
2022-11-27T23:44:08.276Z,96.00
2022-11-27T23:46:36.050Z,95.90
2022-11-27T23:49:05.106Z,96.00
2022-11-27T23:51:33.798Z,96.00
2022-11-27T23:54:01.976Z,95.80
2022-11-27T23:56:31.685Z,96.00
2022-11-27T23:59:00.286Z,95.80
